createdAt,value
2019-02-12T00:00:02.865Z,97706.70
2019-02-12T00:02:41.411Z,97717.64
2019-02-12T00:05:15.202Z,97717.64
2019-02-12T00:07:45.407Z,97714.58
2019-02-12T00:10:36.594Z,97730.28
2019-02-12T00:13:37.614Z,97727.34
2019-02-12T00:16:19.971Z,97733.39
2019-02-12T00:19:02.143Z,97732.56
2019-02-12T00:21:53.318Z,97733.58
2019-02-12T00:25:02.346Z,97734.48
2019-02-12T00:28:23.650Z,97735.48
2019-02-12T00:31:29.628Z,97735.48
2019-02-12T00:34:01.008Z,97736.31
2019-02-12T00:36:47.842Z,97743.35
2019-02-12T00:39:20.298Z,97743.35
2019-02-12T00:42:04.848Z,97743.81
2019-02-12T00:44:36.082Z,97750.45
2019-02-12T00:47:44.617Z,97749.73
2019-02-12T00:50:19.377Z,97749.73
2019-02-12T00:52:51.699Z,97761.59
2019-02-12T00:55:35.973Z,97761.59
2019-02-12T00:58:42.300Z,97752.89
2019-02-12T01:04:58.733Z,97757.19
2019-02-12T01:07:53.920Z,97769.41
2019-02-12T01:10:46.080Z,97769.41
2019-02-12T01:13:43.967Z,97768.28
2019-02-12T01:16:22.697Z,97764.48
2019-02-12T01:21:56.485Z,97771.38
2019-02-12T01:28:05.877Z,97768.30
2019-02-12T01:31:01.742Z,97779.97
2019-02-12T01:33:55.738Z,97791.41
2019-02-12T01:37:08.319Z,97790.45
2019-02-12T01:43:53.828Z,97794.79
2019-02-12T01:46:26.275Z,97797.64
2019-02-12T01:49:10.105Z,97796.05
2019-02-12T01:51:44.242Z,97805.16
2019-02-12T01:54:53.355Z,97807.09
2019-02-12T01:57:53.976Z,97803.30
2019-02-12T02:01:02.791Z,97808.45
2019-02-12T02:04:16.110Z,97806.82
2019-02-12T02:07:34.976Z,97809.20
2019-02-12T02:10:53.451Z,97811.70
2019-02-12T02:14:09.475Z,97818.49
2019-02-12T02:20:11.990Z,97817.36
2019-02-12T02:22:42.898Z,97817.95
2019-02-12T02:25:58.737Z,97818.59
2019-02-12T02:28:49.052Z,97826.62
2019-02-12T02:31:40.060Z,97825.36
2019-02-12T02:34:19.620Z,97822.20
2019-02-12T02:37:31.824Z,97826.76
2019-02-12T02:40:13.054Z,97829.06
2019-02-12T02:42:45.235Z,97837.62
2019-02-12T02:45:24.328Z,97837.62
2019-02-12T02:48:08.723Z,97838.80
2019-02-12T02:51:13.443Z,97837.30
2019-02-12T02:54:05.138Z,97840.72
2019-02-12T02:56:54.353Z,97841.58
2019-02-12T03:02:25.395Z,97855.60
2019-02-12T03:05:31.308Z,97850.45
2019-02-12T03:08:09.997Z,97848.80
2019-02-12T03:10:46.656Z,97851.78
2019-02-12T03:13:17.395Z,97851.45
2019-02-12T03:16:04.901Z,97852.83
2019-02-12T03:19:25.349Z,97852.04
2019-02-12T03:22:12.057Z,97855.80
2019-02-12T03:24:47.901Z,97860.89
2019-02-12T03:27:38.848Z,97861.77
2019-02-12T03:30:48.941Z,97852.28
2019-02-12T03:34:05.496Z,97856.34
2019-02-12T03:37:13.488Z,97861.95
2019-02-12T03:40:21.461Z,97860.88
2019-02-12T03:50:22.319Z,97866.30
2019-02-12T03:56:40.755Z,97866.12
2019-02-12T03:59:25.078Z,97875.29
2019-02-12T04:02:26.634Z,97878.48
2019-02-12T04:05:42.877Z,97879.36
2019-02-12T04:08:56.979Z,97885.95
2019-02-12T04:14:34.958Z,97893.56
2019-02-12T04:17:36.826Z,97898.53
2019-02-12T04:20:39.991Z,97902.85
2019-02-12T04:23:45.465Z,97897.05
2019-02-12T04:26:37.249Z,97897.50
2019-02-12T04:29:45.444Z,97903.42
2019-02-12T04:32:45.391Z,97914.28
2019-02-12T04:35:21.721Z,97904.95
2019-02-12T04:38:13.390Z,97908.82
2019-02-12T04:41:11.723Z,97911.36
2019-02-12T04:44:22.050Z,97902.08
2019-02-12T04:50:24.672Z,97906.13
2019-02-12T04:53:14.303Z,97910.92
2019-02-12T04:56:11.819Z,97911.75
2019-02-12T04:59:08.629Z,97902.85
2019-02-12T05:02:15.962Z,97909.47
2019-02-12T05:05:21.908Z,97911.94
2019-02-12T05:08:11.567Z,97915.64
2019-02-12T05:11:13.624Z,97908.77
2019-02-12T05:14:10.446Z,97909.28
2019-02-12T05:17:05.985Z,97913.28
2019-02-12T05:19:52.274Z,97907.33
2019-02-12T05:22:50.200Z,97897.83
2019-02-12T05:25:55.755Z,97899.58
2019-02-12T05:29:03.019Z,97911.31
2019-02-12T05:32:17.164Z,97912.77
2019-02-12T05:35:15.327Z,97916.05
2019-02-12T05:38:01.811Z,97920.89
2019-02-12T05:41:01.842Z,97925.68
2019-02-12T05:43:46.748Z,97929.59
2019-02-12T05:46:44.309Z,97924.92
2019-02-12T05:49:47.420Z,97943.48
2019-02-12T05:52:37.367Z,97952.02
2019-02-12T05:55:21.224Z,97957.20
2019-02-12T06:01:33.114Z,97970.15
2019-02-12T06:07:21.701Z,97980.57
2019-02-12T06:10:02.406Z,97993.04
2019-02-12T06:13:13.374Z,97986.45
2019-02-12T06:19:26.780Z,97993.45
2019-02-12T06:22:07.089Z,97994.72
2019-02-12T06:24:42.948Z,98000.98
2019-02-12T06:27:17.957Z,98012.39
2019-02-12T06:30:08.070Z,98019.39
2019-02-12T06:32:46.139Z,98014.22
2019-02-12T06:35:19.713Z,98009.91
2019-02-12T06:38:01.847Z,98004.69
2019-02-12T06:40:37.718Z,98004.31
2019-02-12T06:43:19.390Z,98008.31
2019-02-12T06:46:09.882Z,98030.12
2019-02-12T06:48:40.321Z,98030.12
2019-02-12T06:51:30.176Z,98035.66
2019-02-12T06:54:26.746Z,98044.23
2019-02-12T06:57:10.861Z,98042.41
2019-02-12T06:59:43.753Z,98042.41
2019-02-12T07:02:53.649Z,98061.33
2019-02-12T07:05:26.216Z,98061.33
2019-02-12T07:08:03.606Z,98065.59
2019-02-12T07:10:47.859Z,98069.43
2019-02-12T07:13:31.557Z,98072.91
2019-02-12T07:19:33.361Z,98085.00
2019-02-12T07:22:53.129Z,98089.83
2019-02-12T07:26:10.022Z,98094.38
2019-02-12T07:32:35.805Z,98093.45
2019-02-12T07:35:56.277Z,98091.19
2019-02-12T07:38:54.409Z,98088.52
2019-02-12T07:42:02.996Z,98081.35
2019-02-12T07:45:25.899Z,98091.39
2019-02-12T07:52:02.687Z,98097.69
2019-02-12T07:55:37.078Z,98094.64
2019-02-12T07:58:54.903Z,98095.05
2019-02-12T08:01:51.349Z,98087.15
2019-02-12T08:04:41.028Z,98089.83
2019-02-12T08:07:33.970Z,98098.27
2019-02-12T08:10:52.007Z,98103.38
2019-02-12T08:14:09.590Z,98108.33
2019-02-12T08:17:27.555Z,98116.11
2019-02-12T08:23:41.496Z,98124.03
2019-02-12T08:27:02.758Z,98131.41
2019-02-12T08:30:21.833Z,98129.30
2019-02-12T08:33:31.872Z,98130.77
2019-02-12T08:36:31.431Z,98129.38
2019-02-12T08:39:37.973Z,98127.55
2019-02-12T08:42:37.441Z,98134.29
2019-02-12T08:45:51.133Z,98145.78
2019-02-12T08:48:38.637Z,98140.84
2019-02-12T08:51:32.614Z,98139.32
2019-02-12T08:54:31.589Z,98137.33
2019-02-12T08:57:40.444Z,98135.92
2019-02-12T09:00:23.320Z,98138.47
2019-02-12T09:03:19.786Z,98136.35
2019-02-12T09:06:11.545Z,98137.33
2019-02-12T09:09:00.485Z,98139.22
2019-02-12T09:12:03.829Z,98137.26
2019-02-12T09:15:02.788Z,98133.80
2019-02-12T09:17:54.707Z,98143.52
2019-02-12T09:20:52.527Z,98146.19
2019-02-12T09:23:31.604Z,98147.54
2019-02-12T09:26:16.916Z,98160.30
2019-02-12T09:29:06.360Z,98162.44
2019-02-12T09:32:05.211Z,98156.73
2019-02-12T09:34:56.309Z,98159.37
2019-02-12T09:38:06.323Z,98155.25
2019-02-12T09:40:54.344Z,98160.50
2019-02-12T09:43:50.430Z,98162.41
2019-02-12T09:46:32.291Z,98159.09
2019-02-12T09:49:11.073Z,98156.33
2019-02-12T09:52:04.897Z,98160.70
2019-02-12T09:54:43.394Z,98159.03
2019-02-12T09:57:31.036Z,98163.41
2019-02-12T10:00:23.405Z,98168.05
2019-02-12T10:03:10.585Z,98168.30
2019-02-12T10:06:09.052Z,98156.34
2019-02-12T10:09:10.513Z,98155.52
2019-02-12T10:12:29.159Z,98156.34
2019-02-12T10:16:00.521Z,98159.05
2019-02-12T10:19:28.989Z,98157.56
2019-02-12T10:22:21.532Z,98160.97
2019-02-12T10:25:01.224Z,98161.23
2019-02-12T10:28:03.182Z,98168.59
2019-02-12T10:30:45.601Z,98155.54
2019-02-12T10:33:18.271Z,98155.24
2019-02-12T10:39:24.543Z,98166.13
2019-02-12T10:45:47.384Z,98153.30
2019-02-12T10:52:10.351Z,98159.61
2019-02-12T10:57:58.065Z,98150.91
2019-02-12T11:00:33.332Z,98146.53
2019-02-12T11:03:33.583Z,98150.59
2019-02-12T11:06:19.709Z,98140.27
2019-02-12T11:12:13.050Z,98141.08
2019-02-12T11:14:45.152Z,98141.36
2019-02-12T11:17:20.817Z,98132.94
2019-02-12T11:20:20.816Z,98132.89
2019-02-12T11:23:14.962Z,98134.27
2019-02-12T11:25:52.851Z,98125.03
2019-02-12T11:28:23.589Z,98116.25
2019-02-12T11:31:02.479Z,98111.08
2019-02-12T11:33:36.093Z,98112.44
2019-02-12T11:39:48.613Z,98114.67
2019-02-12T11:42:52.687Z,98115.22
2019-02-12T11:45:51.502Z,98114.89
2019-02-12T11:48:39.300Z,98110.74
2019-02-12T11:51:50.572Z,98116.48
2019-02-12T11:54:32.390Z,98116.84
2019-02-12T11:57:11.478Z,98109.73
2019-02-12T12:00:05.073Z,98126.95
2019-02-12T12:03:10.618Z,98114.14
2019-02-12T12:06:02.731Z,98111.70
2019-02-12T12:09:06.165Z,98112.23
2019-02-12T12:12:18.392Z,98111.41
2019-02-12T12:15:26.111Z,98120.94
2019-02-12T12:18:35.546Z,98114.67
2019-02-12T12:21:12.373Z,98121.77
2019-02-12T12:23:44.226Z,98117.34
2019-02-12T12:29:18.610Z,98099.16
2019-02-12T12:32:11.954Z,98087.70
2019-02-12T12:35:03.825Z,98090.17
2019-02-12T12:37:41.957Z,98082.77
2019-02-12T12:40:20.757Z,98087.41
2019-02-12T12:42:51.664Z,98088.55
2019-02-12T12:45:29.794Z,98092.34
2019-02-12T12:51:38.095Z,98095.05
2019-02-12T12:58:11.614Z,98089.60
2019-02-12T13:04:27.332Z,98097.52
2019-02-12T13:07:13.768Z,98098.88
2019-02-12T13:10:12.721Z,98096.43
2019-02-12T13:12:48.202Z,98091.47
2019-02-12T13:15:23.254Z,98095.78
2019-02-12T13:18:18.363Z,98089.28
2019-02-12T13:20:52.275Z,98083.28
2019-02-12T13:23:49.181Z,98090.55
2019-02-12T13:26:25.474Z,98088.63
2019-02-12T13:31:57.630Z,98075.75
2019-02-12T13:34:49.519Z,98098.45
2019-02-12T13:37:56.711Z,98095.20
2019-02-12T13:40:33.656Z,98094.79
2019-02-12T13:43:07.274Z,98085.54
2019-02-12T13:45:50.465Z,98086.84
2019-02-12T13:48:28.247Z,98098.88
2019-02-12T13:51:07.002Z,98096.41
2019-02-12T13:53:42.842Z,98097.45
2019-02-12T13:56:44.834Z,98092.84
2019-02-12T13:59:41.183Z,98093.39
2019-02-12T14:02:49.663Z,98100.45
2019-02-12T14:05:41.911Z,98099.42
2019-02-12T14:08:54.592Z,98102.14
2019-02-12T14:12:04.619Z,98097.74
2019-02-12T14:14:51.553Z,98100.66
2019-02-12T14:17:31.406Z,98100.75
2019-02-12T14:20:23.268Z,98097.16
2019-02-12T14:23:13.132Z,98099.81
2019-02-12T14:28:49.948Z,98095.41
2019-02-12T14:31:22.649Z,98096.03
2019-02-12T14:33:52.672Z,98094.20
2019-02-12T14:36:24.308Z,98094.70
2019-02-12T14:38:57.873Z,98097.13
2019-02-12T14:41:28.235Z,98094.28
2019-02-12T14:43:58.099Z,98099.17
2019-02-12T14:47:01.870Z,98102.41
2019-02-12T14:49:39.071Z,98100.83
2019-02-12T14:52:21.103Z,98098.20
2019-02-12T14:55:33.541Z,98099.94
2019-02-12T14:58:37.958Z,98100.34
2019-02-12T15:01:52.650Z,98108.48
2019-02-12T15:04:38.339Z,98106.04
2019-02-12T15:07:13.155Z,98102.10
2019-02-12T15:09:50.062Z,98106.70
2019-02-12T15:12:36.586Z,98117.91
2019-02-12T15:15:12.884Z,98115.48
2019-02-12T15:17:47.230Z,98122.01
2019-02-12T15:20:19.691Z,98122.96
2019-02-12T15:22:52.582Z,98126.14
2019-02-12T15:25:24.681Z,98134.77
2019-02-12T15:27:54.582Z,98128.98
2019-02-12T15:30:46.627Z,98130.36
2019-02-12T15:33:20.696Z,98129.00
2019-02-12T15:35:59.847Z,98138.85
2019-02-12T15:38:52.329Z,98135.48
2019-02-12T15:41:37.588Z,98136.59
2019-02-12T15:44:40.349Z,98135.30
2019-02-12T15:47:18.946Z,98140.83
2019-02-12T15:49:50.358Z,98134.84
2019-02-12T15:52:29.460Z,98136.36
2019-02-12T15:54:58.287Z,98131.72
2019-02-12T15:57:37.618Z,98135.30
2019-02-12T16:00:21.231Z,98130.66
2019-02-12T16:02:57.981Z,98126.34
2019-02-12T16:05:28.371Z,98133.53
2019-02-12T16:07:58.670Z,98133.95
2019-02-12T16:13:29.109Z,98138.73
2019-02-12T16:16:22.524Z,98139.05
2019-02-12T16:19:01.440Z,98142.71
2019-02-12T16:21:32.579Z,98145.86
2019-02-12T16:24:02.829Z,98157.42
2019-02-12T16:26:32.921Z,98161.33
2019-02-12T16:29:12.417Z,98156.22
2019-02-12T16:32:21.323Z,98159.45
2019-02-12T16:35:27.270Z,98161.04
2019-02-12T16:44:57.061Z,98168.78
2019-02-12T16:47:56.442Z,98170.54
2019-02-12T16:50:51.583Z,98180.72
2019-02-12T16:54:06.935Z,98184.38
2019-02-12T16:56:51.243Z,98191.86
2019-02-12T16:59:52.313Z,98198.00
2019-02-12T17:02:59.490Z,98193.98
2019-02-12T17:05:38.811Z,98200.69
2019-02-12T17:08:11.502Z,98203.41
2019-02-12T17:10:50.159Z,98209.30
2019-02-12T17:13:21.065Z,98207.95
2019-02-12T17:16:02.839Z,98204.61
2019-02-12T17:18:46.532Z,98216.38
2019-02-12T17:21:35.581Z,98218.72
2019-02-12T17:24:15.060Z,98217.64
2019-02-12T17:27:11.358Z,98217.21
2019-02-12T17:29:52.193Z,98219.34
2019-02-12T17:32:53.504Z,98221.62
2019-02-12T17:35:32.570Z,98225.75
2019-02-12T17:38:04.446Z,98232.81
2019-02-12T17:40:42.544Z,98230.34
2019-02-12T17:43:28.625Z,98237.11
2019-02-12T17:45:59.700Z,98236.75
2019-02-12T17:48:55.725Z,98242.25
2019-02-12T17:51:40.486Z,98243.54
2019-02-12T17:54:15.504Z,98248.27
2019-02-12T17:57:01.315Z,98247.89
2019-02-12T17:59:54.368Z,98261.07
2019-02-12T18:02:24.998Z,98263.02
2019-02-12T18:04:56.339Z,98257.05
2019-02-12T18:07:37.157Z,98264.34
2019-02-12T18:10:16.564Z,98271.98
2019-02-12T18:16:05.154Z,98272.23
2019-02-12T18:18:36.465Z,98273.95
2019-02-12T18:21:11.580Z,98285.27
2019-02-12T18:23:46.770Z,98284.06
2019-02-12T18:26:21.210Z,98282.17
2019-02-12T18:28:51.818Z,98290.02
2019-02-12T18:31:21.919Z,98291.63
2019-02-12T18:34:01.949Z,98293.89
2019-02-12T18:39:51.186Z,98299.58
2019-02-12T18:42:50.961Z,98297.94
2019-02-12T18:45:36.121Z,98301.35
2019-02-12T18:48:28.041Z,98299.15
2019-02-12T18:51:36.002Z,98299.15
2019-02-12T18:54:24.227Z,98309.84
2019-02-12T18:57:18.516Z,98309.84
2019-02-12T19:00:06.361Z,98312.84
2019-02-12T19:02:58.142Z,98316.52
2019-02-12T19:05:36.494Z,98327.89
2019-02-12T19:08:23.172Z,98327.89
2019-02-12T19:11:03.929Z,98336.78
2019-02-12T19:13:47.564Z,98338.82
2019-02-12T19:16:40.704Z,98342.75
2019-02-12T19:19:57.346Z,98344.92
2019-02-12T19:22:55.933Z,98343.89
2019-02-12T19:25:52.570Z,98349.28
2019-02-12T19:28:48.169Z,98352.02
2019-02-12T19:31:22.098Z,98362.00
2019-02-12T19:34:15.806Z,98358.88
2019-02-12T19:36:57.216Z,98361.73
2019-02-12T19:39:42.753Z,98368.28
2019-02-12T19:42:34.973Z,98368.48
2019-02-12T19:45:26.627Z,98381.79
2019-02-12T19:48:26.485Z,98383.86
2019-02-12T19:51:29.875Z,98400.87
2019-02-12T19:54:18.925Z,98412.70
2019-02-12T19:56:58.467Z,98411.94
2019-02-12T19:59:29.003Z,98418.30
2019-02-12T20:02:00.151Z,98419.58
2019-02-12T20:04:35.862Z,98424.53
2019-02-12T20:07:13.625Z,98418.68
2019-02-12T20:09:45.830Z,98426.41
2019-02-12T20:12:22.142Z,98434.52
2019-02-12T20:14:52.657Z,98437.08
2019-02-12T20:17:27.987Z,98447.72
2019-02-12T20:20:00.406Z,98454.23
2019-02-12T20:22:58.565Z,98452.95
2019-02-12T20:25:50.927Z,98450.08
2019-02-12T20:28:40.818Z,98447.50
2019-02-12T20:31:35.408Z,98449.73
2019-02-12T20:34:24.131Z,98449.73
2019-02-12T20:36:59.087Z,98456.02
2019-02-12T20:39:30.825Z,98460.15
2019-02-12T20:42:10.407Z,98463.14
2019-02-12T20:44:43.046Z,98470.67
2019-02-12T20:47:19.079Z,98474.98
2019-02-12T20:49:50.566Z,98476.66
2019-02-12T20:52:24.409Z,98479.14
2019-02-12T20:54:56.032Z,98473.58
2019-02-12T20:57:43.931Z,98479.14
2019-02-12T21:00:15.447Z,98493.50
2019-02-12T21:02:45.558Z,98493.57
2019-02-12T21:05:19.605Z,98490.13
2019-02-12T21:07:51.221Z,98493.50
2019-02-12T21:10:32.909Z,98502.64
2019-02-12T21:13:04.094Z,98508.73
2019-02-12T21:15:34.911Z,98509.43
2019-02-12T21:18:06.726Z,98505.75
2019-02-12T21:20:51.696Z,98510.13
2019-02-12T21:23:53.530Z,98516.05
2019-02-12T21:26:50.148Z,98513.39
2019-02-12T21:29:47.973Z,98518.30
2019-02-12T21:32:52.806Z,98516.37
2019-02-12T21:35:48.162Z,98517.64
2019-02-12T21:39:04.178Z,98519.27
2019-02-12T21:41:47.067Z,98515.73
2019-02-12T21:44:36.171Z,98519.12
2019-02-12T21:47:21.969Z,98523.19
2019-02-12T21:49:50.603Z,98524.98
2019-02-12T21:52:25.556Z,98520.98
2019-02-12T21:54:56.967Z,98520.80
2019-02-12T21:57:34.219Z,98521.63
2019-02-12T22:00:08.827Z,98519.57
2019-02-12T22:02:40.742Z,98524.45
2019-02-12T22:05:15.409Z,98531.29
2019-02-12T22:07:49.764Z,98530.91
2019-02-12T22:10:28.517Z,98537.86
2019-02-12T22:12:58.333Z,98533.87
2019-02-12T22:15:28.443Z,98533.87
2019-02-12T22:17:59.709Z,98541.70
2019-02-12T22:20:29.611Z,98548.77
2019-02-12T22:22:59.598Z,98548.77
2019-02-12T22:25:29.554Z,98541.81
2019-02-12T22:28:02.592Z,98541.81
2019-02-12T22:30:40.673Z,98557.55
2019-02-12T22:33:12.293Z,98557.55
2019-02-12T22:35:42.214Z,98555.91
2019-02-12T22:38:12.037Z,98557.58
2019-02-12T22:40:45.842Z,98564.14
2019-02-12T22:43:13.703Z,98564.14
2019-02-12T22:45:46.760Z,98560.80
2019-02-12T22:48:16.870Z,98569.56
2019-02-12T22:50:51.013Z,98569.56
2019-02-12T22:53:21.400Z,98568.00
2019-02-12T22:55:51.370Z,98568.00
2019-02-12T22:58:23.018Z,98567.73
2019-02-12T23:01:04.096Z,98571.68
2019-02-12T23:03:34.424Z,98587.66
2019-02-12T23:06:08.422Z,98571.08
2019-02-12T23:08:39.074Z,98578.10
2019-02-12T23:11:09.829Z,98594.59
2019-02-12T23:13:39.718Z,98594.59
2019-02-12T23:16:11.169Z,98589.72
2019-02-12T23:18:40.994Z,98587.99
2019-02-12T23:21:10.951Z,98598.45
2019-02-12T23:23:41.019Z,98607.27
2019-02-12T23:26:12.374Z,98607.27
2019-02-12T23:28:42.289Z,98607.44
2019-02-12T23:31:12.341Z,98607.44
2019-02-12T23:33:47.321Z,98608.27
2019-02-12T23:36:26.392Z,98608.27
2019-02-12T23:39:06.228Z,98614.91
2019-02-12T23:41:53.507Z,98622.08
2019-02-12T23:44:26.539Z,98629.37
2019-02-12T23:47:10.248Z,98626.70
2019-02-12T23:49:59.359Z,98631.12
2019-02-12T23:52:51.262Z,98629.16
2019-02-12T23:55:34.336Z,98627.18
2019-02-12T23:58:05.942Z,98628.48
